Time;durP1;ratioP1;P1;durP2;ratioP2;P2;SDS_P1;SDS_P2;PMS_P1;PMS_P2;Temp;Humidity;BMP_temperature;BMP_pressure;BME280_temperature;BME280_humidity;BME280_pressure;Samples;Min_cycle;Max_cycle;Signal;HPM_P1;HPM_P2
2024/03/22 00:01:46;;;;;;;20.13;10.45;;;11.10;99.90;;;;;;5001321;28;20525;-70
2024/03/22 00:04:13;;;;;;;17.83;10.73;;;11.10;99.90;;;;;;4998906;28;20095;-70
2024/03/22 00:06:43;;;;;;;16.02;11.07;;;11.00;99.90;;;;;;4995356;28;20108;-70
2024/03/22 00:09:10;;;;;;;17.15;11.63;;;11.00;99.90;;;;;;5000039;28;20133;-70
2024/03/22 00:11:36;;;;;;;19.35;11.63;;;11.00;99.90;;;;;;5002076;28;20088;-72
2024/03/22 00:14:03;;;;;;;19.40;12.13;;;11.00;99.90;;;;;;5001422;28;20069;-70
2024/03/22 00:16:31;;;;;;;18.75;11.82;;;11.10;99.90;;;;;;4987585;28;20061;-71
2024/03/22 00:19:00;;;;;;;19.27;11.38;;;11.00;99.90;;;;;;5001768;28;20471;-68
2024/03/22 00:21:26;;;;;;;17.42;11.05;;;11.00;99.90;;;;;;5002538;28;20402;-71
2024/03/22 00:23:52;;;;;;;19.52;11.95;;;11.00;99.90;;;;;;4990717;28;20042;-70
2024/03/22 00:26:17;;;;;;;16.13;11.73;;;11.00;99.90;;;;;;4993663;28;20482;-69
2024/03/22 00:28:43;;;;;;;21.55;10.70;;;11.00;99.90;;;;;;5000783;28;20085;-65
2024/03/22 00:31:09;;;;;;;16.00;12.10;;;10.90;99.90;;;;;;5003051;28;20053;-70
2024/03/22 00:33:37;;;;;;;19.30;10.98;;;10.90;99.90;;;;;;5003436;28;20058;-70
2024/03/22 00:36:07;;;;;;;13.68;10.32;;;10.90;99.90;;;;;;5002507;28;20064;-70
2024/03/22 00:38:32;;;;;;;19.75;12.00;;;10.80;99.90;;;;;;5003113;28;20061;-69
2024/03/22 00:40:59;;;;;;;15.10;11.65;;;10.90;99.90;;;;;;4997999;28;20107;-69
2024/03/22 00:43:25;;;;;;;16.92;11.65;;;10.90;99.90;;;;;;4980582;28;20054;-73
2024/03/22 00:45:50;;;;;;;19.48;11.57;;;10.80;99.90;;;;;;5001083;28;20058;-69
2024/03/22 00:48:18;;;;;;;17.80;11.70;;;10.80;99.90;;;;;;5005754;28;20049;-70
2024/03/22 00:50:44;;;;;;;18.15;11.55;;;10.80;99.90;;;;;;4997605;28;20050;-71
2024/03/22 00:53:10;;;;;;;18.77;11.27;;;10.80;99.90;;;;;;4998855;28;20054;-70
2024/03/22 00:55:35;;;;;;;19.90;10.98;;;10.80;99.90;;;;;;5008040;28;20049;-69
2024/03/22 00:58:01;;;;;;;20.42;11.13;;;10.80;99.90;;;;;;5006883;28;20049;-69
2024/03/22 01:00:27;;;;;;;16.90;11.52;;;10.80;99.90;;;;;;5003473;28;20057;-69
2024/03/22 01:02:53;;;;;;;22.70;12.45;;;10.80;99.90;;;;;;5005292;28;20060;-71
2024/03/22 01:05:19;;;;;;;16.55;11.20;;;10.80;99.90;;;;;;5007668;28;20050;-69
2024/03/22 01:07:45;;;;;;;17.92;11.73;;;10.80;99.90;;;;;;4989399;28;20053;-69
2024/03/22 01:10:11;;;;;;;17.83;12.43;;;10.80;99.90;;;;;;5004859;28;20053;-69
2024/03/22 01:12:38;;;;;;;19.95;11.60;;;10.80;99.90;;;;;;5006490;28;20057;-69
2024/03/22 01:15:05;;;;;;;17.35;11.40;;;10.80;99.90;;;;;;5007117;28;20053;-68
2024/03/22 01:17:31;;;;;;;17.13;10.82;;;10.80;99.90;;;;;;5007745;28;20073;-69
2024/03/22 01:19:57;;;;;;;19.88;11.48;;;10.70;99.90;;;;;;5007312;28;20045;-69
2024/03/22 01:22:23;;;;;;;18.40;10.85;;;10.70;99.90;;;;;;5008101;28;20485;-69
2024/03/22 01:24:49;;;;;;;18.42;11.05;;;10.80;99.90;;;;;;4991525;28;20080;-68
2024/03/22 01:27:15;;;;;;;14.80;8.90;;;10.80;99.90;;;;;;5005652;28;20060;-68
2024/03/22 01:29:40;;;;;;;15.85;9.52;;;10.90;99.90;;;;;;5006201;28;20042;-68
2024/03/22 01:32:06;;;;;;;17.15;9.65;;;10.70;99.90;;;;;;5006010;28;20050;-69
2024/03/22 01:34:32;;;;;;;15.55;8.35;;;10.80;99.90;;;;;;5006548;28;20050;-69
2024/03/22 01:36:58;;;;;;;13.27;7.72;;;10.80;99.90;;;;;;5010412;28;20057;-69
2024/03/22 01:39:24;;;;;;;12.75;8.02;;;10.70;99.90;;;;;;5010558;28;20042;-69
2024/03/22 01:41:50;;;;;;;15.57;7.65;;;10.80;99.90;;;;;;5010864;28;20497;-69
2024/03/22 01:44:17;;;;;;;10.88;7.53;;;10.80;99.90;;;;;;5009120;28;20061;-69
2024/03/22 01:46:42;;;;;;;12.38;8.05;;;10.80;99.90;;;;;;5009455;28;20050;-69
2024/03/22 01:49:09;;;;;;;14.73;7.53;;;10.80;99.90;;;;;;4992732;28;20437;-69
2024/03/22 01:51:35;;;;;;;15.43;7.78;;;10.80;99.90;;;;;;4993718;28;20053;-68
2024/03/22 01:54:01;;;;;;;12.70;7.63;;;10.80;99.90;;;;;;5009354;28;20088;-69
2024/03/22 01:56:28;;;;;;;12.02;7.03;;;10.80;99.90;;;;;;5011947;28;20408;-70
2024/03/22 01:58:54;;;;;;;12.48;7.07;;;10.70;99.90;;;;;;4995454;28;20042;-69
2024/03/22 02:01:20;;;;;;;8.38;6.63;;;10.80;99.90;;;;;;4993577;28;20045;-70
2024/03/22 02:03:46;;;;;;;11.77;7.50;;;10.70;99.90;;;;;;5008718;28;20050;-70
2024/03/22 02:06:12;;;;;;;13.95;6.80;;;10.70;99.90;;;;;;4999717;28;20073;-69
2024/03/22 02:08:40;;;;;;;15.48;8.23;;;10.70;99.90;;;;;;5007172;28;20473;-69
2024/03/22 02:11:06;;;;;;;13.05;8.27;;;10.70;99.90;;;;;;5010185;28;20515;-70
2024/03/22 02:13:32;;;;;;;10.98;7.18;;;10.60;99.90;;;;;;5008274;28;20050;-69
2024/03/22 02:15:57;;;;;;;12.73;7.57;;;10.50;99.90;;;;;;5008743;28;20057;-69
2024/03/22 02:18:23;;;;;;;15.82;8.32;;;10.50;99.90;;;;;;5007823;28;20034;-70
2024/03/22 02:20:49;;;;;;;12.95;7.60;;;10.50;99.90;;;;;;5009539;28;20046;-69
2024/03/22 02:23:15;;;;;;;17.05;7.43;;;10.50;99.90;;;;;;5008015;28;20552;-70
2024/03/22 02:25:41;;;;;;;16.15;8.18;;;10.50;99.90;;;;;;5008707;28;20497;-69
2024/03/22 02:28:06;;;;;;;13.73;6.88;;;10.60;99.90;;;;;;5008174;28;20052;-69
2024/03/22 02:30:32;;;;;;;10.75;7.03;;;10.50;99.90;;;;;;5009178;28;20129;-68
2024/03/22 02:32:58;;;;;;;10.73;7.13;;;10.60;99.90;;;;;;5005436;28;20050;-69
2024/03/22 02:35:24;;;;;;;20.13;8.45;;;10.50;99.90;;;;;;5006435;28;20057;-69
2024/03/22 02:37:50;;;;;;;14.50;7.35;;;10.50;99.90;;;;;;5008808;28;20061;-69
2024/03/22 02:40:16;;;;;;;13.00;7.47;;;10.50;99.90;;;;;;5007673;28;20812;-69
2024/03/22 02:42:41;;;;;;;11.90;7.50;;;10.50;99.90;;;;;;4999433;28;20115;-69
2024/03/22 02:45:08;;;;;;;13.45;7.70;;;10.40;99.90;;;;;;5008789;28;20455;-69
2024/03/22 02:47:34;;;;;;;10.98;8.23;;;10.40;99.90;;;;;;5007844;28;20112;-69
2024/03/22 02:49:59;;;;;;;12.38;7.20;;;10.40;99.90;;;;;;5009768;28;20046;-69
2024/03/22 02:52:25;;;;;;;13.07;7.95;;;10.40;99.90;;;;;;5007698;28;20427;-70
2024/03/22 02:54:51;;;;;;;14.82;8.38;;;10.50;99.90;;;;;;5007972;28;20053;-69
2024/03/22 02:57:19;;;;;;;17.55;7.65;;;10.40;99.90;;;;;;5006929;28;20093;-69
2024/03/22 02:59:45;;;;;;;11.35;7.95;;;10.40;99.90;;;;;;5006888;28;20060;-69
2024/03/22 03:02:11;;;;;;;15.10;8.23;;;10.40;99.90;;;;;;5007361;28;20054;-69
2024/03/22 03:04:37;;;;;;;10.68;6.72;;;10.40;99.90;;;;;;5007649;28;20092;-69
2024/03/22 03:07:03;;;;;;;11.30;7.50;;;10.40;99.90;;;;;;5009166;28;20065;-69
2024/03/22 03:09:28;;;;;;;11.27;6.93;;;10.40;99.90;;;;;;5022730;28;20060;-69
2024/03/22 03:11:54;;;;;;;12.55;7.60;;;10.40;99.90;;;;;;5007859;28;20046;-71
2024/03/22 03:14:20;;;;;;;11.82;7.28;;;10.40;99.90;;;;;;5004653;28;20050;-68
2024/03/22 03:16:46;;;;;;;11.90;8.20;;;10.50;99.90;;;;;;5006786;28;20050;-69
2024/03/22 03:19:12;;;;;;;11.25;7.40;;;10.50;99.90;;;;;;5023726;28;20069;-69
2024/03/22 03:21:38;;;;;;;14.95;8.55;;;10.50;99.90;;;;;;5006856;28;20050;-69
2024/03/22 03:24:04;;;;;;;12.43;7.65;;;10.50;99.90;;;;;;5007585;28;20519;-69
2024/03/22 03:26:29;;;;;;;13.52;8.35;;;10.50;99.90;;;;;;5009181;28;20310;-69
2024/03/22 03:28:55;;;;;;;14.77;7.85;;;10.60;99.90;;;;;;5025509;28;20061;-69
2024/03/22 03:31:22;;;;;;;10.80;7.43;;;10.50;99.90;;;;;;5006999;28;20050;-70
2024/03/22 03:33:48;;;;;;;12.88;7.90;;;10.60;99.90;;;;;;5009536;28;20081;-70
2024/03/22 03:36:14;;;;;;;13.68;7.43;;;10.60;99.90;;;;;;5007591;28;20493;-70
2024/03/22 03:38:41;;;;;;;13.60;7.28;;;10.60;99.90;;;;;;5009461;28;20041;-70
2024/03/22 03:41:07;;;;;;;11.25;7.00;;;10.50;99.90;;;;;;5024336;28;20053;-69
2024/03/22 03:43:33;;;;;;;20.42;9.32;;;10.50;99.90;;;;;;5008730;28;20363;-68
2024/03/22 03:45:59;;;;;;;12.57;7.10;;;10.50;99.90;;;;;;4990724;28;20049;-67
2024/03/22 03:48:25;;;;;;;9.82;6.13;;;10.50;99.90;;;;;;5007100;28;20054;-67
2024/03/22 03:50:54;;;;;;;13.52;6.78;;;10.50;99.90;;;;;;5005983;28;20053;-68
2024/03/22 03:53:23;;;;;;;9.25;5.53;;;10.50;99.90;;;;;;5004910;28;20050;-68
2024/03/22 03:55:49;;;;;;;8.30;5.20;;;10.50;99.90;;;;;;5006675;28;20050;-68
2024/03/22 03:58:17;;;;;;;9.55;5.82;;;10.50;99.90;;;;;;5006011;28;20072;-68
2024/03/22 04:00:44;;;;;;;11.27;5.25;;;10.50;99.90;;;;;;5007389;28;20056;-68
2024/03/22 04:03:10;;;;;;;10.93;5.70;;;10.60;99.90;;;;;;5008603;28;20045;-68
2024/03/22 04:05:36;;;;;;;10.13;5.68;;;10.60;99.90;;;;;;5007330;28;20065;-68
2024/03/22 04:08:02;;;;;;;10.35;5.25;;;10.70;99.90;;;;;;5004721;28;20050;-68
2024/03/22 04:10:27;;;;;;;12.40;5.88;;;10.70;99.90;;;;;;5006532;28;20050;-68
2024/03/22 04:12:53;;;;;;;9.40;5.25;;;10.70;99.90;;;;;;5006158;28;20330;-68
2024/03/22 04:15:19;;;;;;;9.70;6.13;;;10.70;99.90;;;;;;5004940;28;20490;-68
2024/03/22 04:17:45;;;;;;;18.02;6.82;;;10.80;99.90;;;;;;5003568;28;20053;-68
2024/03/22 04:20:11;;;;;;;10.00;7.13;;;10.80;99.90;;;;;;5003641;28;20559;-68
2024/03/22 04:22:37;;;;;;;11.38;5.90;;;10.80;99.90;;;;;;5005894;28;20401;-69
2024/03/22 04:25:04;;;;;;;8.48;5.35;;;10.70;99.90;;;;;;5000375;28;20050;-69
2024/03/22 04:27:29;;;;;;;12.05;6.90;;;10.70;99.90;;;;;;5006124;28;20054;-69
2024/03/22 04:29:55;;;;;;;9.43;5.85;;;10.60;99.90;;;;;;5010955;28;20500;-69
2024/03/22 04:32:21;;;;;;;10.63;5.40;;;10.60;99.90;;;;;;5004837;28;20417;-69
2024/03/22 04:34:47;;;;;;;12.60;5.43;;;10.60;99.90;;;;;;5006316;28;20141;-69
2024/03/22 04:37:13;;;;;;;8.35;5.70;;;10.50;99.90;;;;;;5000751;28;20057;-69
2024/03/22 04:39:40;;;;;;;9.55;5.72;;;10.50;99.90;;;;;;5008031;28;20037;-69
2024/03/22 04:42:06;;;;;;;10.90;5.25;;;10.50;99.90;;;;;;4974165;28;20468;-69
2024/03/22 04:44:32;;;;;;;10.85;5.70;;;10.50;99.90;;;;;;5023644;28;20394;-69
2024/03/22 04:46:58;;;;;;;8.88;5.53;;;10.50;99.90;;;;;;5005500;28;20112;-69
2024/03/22 04:49:24;;;;;;;17.98;5.07;;;10.50;99.90;;;;;;5006732;28;20421;-69
2024/03/22 04:51:49;;;;;;;9.38;4.80;;;10.50;99.90;;;;;;4993423;28;20054;-69
2024/03/22 04:54:15;;;;;;;8.13;5.55;;;10.50;99.90;;;;;;5003149;28;20072;-69
2024/03/22 04:56:41;;;;;;;15.52;5.13;;;10.50;99.90;;;;;;5005344;28;20133;-69
2024/03/22 04:59:07;;;;;;;9.98;5.95;;;10.50;99.90;;;;;;5002941;28;20069;-68
2024/03/22 05:01:33;;;;;;;13.05;5.78;;;10.50;99.90;;;;;;5006082;28;20151;-68
2024/03/22 05:03:58;;;;;;;17.38;5.95;;;10.60;99.90;;;;;;4990263;28;20053;-68
2024/03/22 05:06:24;;;;;;;7.53;5.00;;;10.50;99.90;;;;;;5008396;28;20064;-68
2024/03/22 05:08:50;;;;;;;8.88;5.35;;;10.50;99.90;;;;;;5009894;28;20046;-68
2024/03/22 05:11:16;;;;;;;14.73;6.00;;;10.50;99.90;;;;;;5012614;28;20137;-68
2024/03/22 05:13:42;;;;;;;7.97;5.30;;;10.50;99.90;;;;;;5013198;28;20412;-69
2024/03/22 05:16:08;;;;;;;13.38;6.35;;;10.50;99.90;;;;;;5009186;28;20099;-68
2024/03/22 05:18:33;;;;;;;12.65;6.57;;;10.50;99.90;;;;;;5001461;28;20099;-70
2024/03/22 05:20:59;;;;;;;12.00;5.88;;;10.60;99.90;;;;;;5009452;28;20798;-69
2024/03/22 05:23:25;;;;;;;11.98;6.60;;;10.60;99.90;;;;;;5009117;28;20054;-69
2024/03/22 05:25:51;;;;;;;13.07;7.00;;;10.60;99.90;;;;;;5010271;28;20049;-68
2024/03/22 05:28:17;;;;;;;12.60;7.20;;;10.70;99.90;;;;;;5012367;28;20397;-69
2024/03/22 05:30:43;;;;;;;11.60;6.90;;;10.60;99.90;;;;;;5009179;28;20049;-67
2024/03/22 05:33:09;;;;;;;13.02;6.75;;;10.50;99.90;;;;;;5009982;28;20125;-70
2024/03/22 05:35:34;;;;;;;13.20;7.35;;;10.50;99.90;;;;;;5008772;28;20350;-69
2024/03/22 05:38:00;;;;;;;14.55;6.38;;;10.40;99.90;;;;;;5004577;28;20050;-69
2024/03/22 05:40:26;;;;;;;11.00;6.53;;;10.50;99.90;;;;;;5025655;28;20136;-70
2024/03/22 05:42:52;;;;;;;11.07;6.03;;;10.50;99.90;;;;;;5026786;28;20359;-70
2024/03/22 05:45:18;;;;;;;12.75;6.88;;;10.50;99.90;;;;;;4992878;28;20054;-68
2024/03/22 05:47:44;;;;;;;12.25;5.93;;;10.50;99.90;;;;;;5005307;28;20426;-68
2024/03/22 05:50:10;;;;;;;11.15;6.32;;;10.50;99.90;;;;;;5005102;28;20045;-68
2024/03/22 05:52:35;;;;;;;9.60;5.20;;;10.50;99.90;;;;;;5017957;28;20084;-68
2024/03/22 05:55:02;;;;;;;12.40;5.78;;;10.50;99.90;;;;;;5008220;28;20046;-69
2024/03/22 05:57:28;;;;;;;8.52;4.95;;;10.50;99.90;;;;;;5011791;28;20525;-68
2024/03/22 05:59:54;;;;;;;10.55;5.25;;;10.50;99.90;;;;;;5011682;28;20129;-69
2024/03/22 06:02:19;;;;;;;11.18;6.13;;;10.50;99.90;;;;;;4992278;28;20085;-69
2024/03/22 06:04:45;;;;;;;11.05;5.35;;;10.50;99.90;;;;;;5012399;28;20152;-69
2024/03/22 06:07:12;;;;;;;8.70;5.03;;;10.50;99.90;;;;;;5007576;28;20064;-68
2024/03/22 06:09:45;;;;;;;13.93;4.82;;;10.50;99.90;;;;;;5008468;28;20061;-68
2024/03/22 06:12:12;;;;;;;6.57;4.82;;;10.50;99.90;;;;;;4991761;28;20057;-69
2024/03/22 06:14:39;;;;;;;9.23;5.10;;;10.60;99.90;;;;;;5007582;28;20061;-69
2024/03/22 06:17:05;;;;;;;8.50;5.45;;;10.60;99.90;;;;;;5007529;28;20050;-68
2024/03/22 06:19:30;;;;;;;10.60;5.38;;;10.70;99.90;;;;;;5013101;28;20046;-68
2024/03/22 06:21:56;;;;;;;6.72;4.45;;;10.70;99.90;;;;;;5010093;28;20408;-69
2024/03/22 06:24:22;;;;;;;11.23;5.40;;;10.60;99.90;;;;;;5009398;28;20048;-69
2024/03/22 06:26:49;;;;;;;10.43;5.35;;;10.70;99.90;;;;;;5008916;28;20057;-68
2024/03/22 06:29:18;;;;;;;9.10;5.30;;;10.60;99.90;;;;;;5009514;28;20053;-68
2024/03/22 06:31:44;;;;;;;8.05;5.32;;;10.60;99.90;;;;;;5022428;28;20042;-69
2024/03/22 06:34:10;;;;;;;12.80;6.47;;;10.70;99.90;;;;;;5007261;28;20764;-67
2024/03/22 06:36:36;;;;;;;10.95;5.72;;;10.70;99.90;;;;;;5022549;28;20093;-69
2024/03/22 06:39:06;;;;;;;9.27;5.20;;;10.70;99.90;;;;;;5008736;28;20452;-70
2024/03/22 06:41:33;;;;;;;13.63;5.00;;;10.60;99.90;;;;;;5003154;28;20065;-70
2024/03/22 06:43:59;;;;;;;10.35;5.25;;;10.70;99.90;;;;;;5007945;28;20045;-70
2024/03/22 06:46:25;;;;;;;12.15;4.95;;;10.60;99.90;;;;;;5007404;28;20313;-70
2024/03/22 06:48:52;;;;;;;12.15;5.20;;;10.70;99.90;;;;;;5005339;28;21079;-69
2024/03/22 06:51:18;;;;;;;15.75;5.78;;;10.70;99.90;;;;;;5008668;28;20109;-70
2024/03/22 06:53:45;;;;;;;11.48;4.90;;;10.70;99.90;;;;;;5008915;28;20050;-70
2024/03/22 06:56:11;;;;;;;12.85;5.10;;;10.70;99.90;;;;;;5009299;28;20053;-69
2024/03/22 06:58:40;;;;;;;10.85;6.43;;;10.70;99.90;;;;;;5004155;28;20508;-70
2024/03/22 07:01:06;;;;;;;12.00;5.18;;;10.70;99.90;;;;;;5014377;28;20046;-70
2024/03/22 07:03:33;;;;;;;15.98;5.90;;;10.70;99.90;;;;;;5023960;28;20103;-70
2024/03/22 07:05:59;;;;;;;9.65;5.10;;;10.70;99.90;;;;;;5021546;28;20042;-70
2024/03/22 07:08:25;;;;;;;10.95;5.57;;;10.80;99.90;;;;;;5016684;28;20054;-71
2024/03/22 07:10:53;;;;;;;9.43;5.40;;;10.70;99.90;;;;;;5004053;28;20121;-70
2024/03/22 07:13:19;;;;;;;14.43;5.13;;;10.70;99.90;;;;;;5005476;28;20050;-70
2024/03/22 07:15:46;;;;;;;7.88;4.78;;;10.70;99.90;;;;;;5004137;28;20571;-70
2024/03/22 07:18:12;;;;;;;7.85;5.47;;;10.70;99.90;;;;;;5001097;28;20057;-70
2024/03/22 07:20:37;;;;;;;12.95;4.78;;;10.80;99.90;;;;;;5004883;28;20058;-70
2024/03/22 07:23:04;;;;;;;7.03;4.40;;;10.80;99.90;;;;;;5007613;28;20037;-70
2024/03/22 07:25:30;;;;;;;8.77;4.63;;;10.70;99.90;;;;;;5007096;28;20110;-70
2024/03/22 07:27:56;;;;;;;8.82;4.40;;;10.80;99.90;;;;;;5005245;28;20141;-71
2024/03/22 07:30:22;;;;;;;8.07;4.72;;;10.80;99.90;;;;;;5021109;28;20054;-70
2024/03/22 07:32:48;;;;;;;11.10;3.95;;;10.90;99.90;;;;;;5005672;28;20068;-69
2024/03/22 07:35:14;;;;;;;12.55;3.92;;;10.90;99.90;;;;;;5012847;28;20053;-71
2024/03/22 07:37:40;;;;;;;9.52;4.03;;;10.90;99.90;;;;;;5002838;28;20056;-69
2024/03/22 07:40:07;;;;;;;6.63;3.95;;;10.80;99.90;;;;;;5009260;28;20049;-69
2024/03/22 07:42:33;;;;;;;6.40;3.65;;;10.80;99.90;;;;;;5006863;28;20054;-69
2024/03/22 07:44:58;;;;;;;7.30;4.38;;;10.90;99.90;;;;;;5004960;28;20050;-69
2024/03/22 07:47:25;;;;;;;11.82;4.03;;;10.90;99.90;;;;;;4997688;28;20097;-70
2024/03/22 07:49:51;;;;;;;13.48;4.20;;;10.90;99.90;;;;;;5008426;28;20046;-69
2024/03/22 07:52:16;;;;;;;9.02;4.13;;;11.00;99.90;;;;;;4997671;28;20468;-68
2024/03/22 07:54:42;;;;;;;13.73;3.75;;;10.90;99.90;;;;;;5005833;28;20460;-70
2024/03/22 07:57:10;;;;;;;12.35;4.00;;;11.00;99.90;;;;;;5007899;28;20038;-70
2024/03/22 07:59:36;;;;;;;10.35;4.22;;;11.00;99.90;;;;;;5000530;28;20054;-69
2024/03/22 08:02:03;;;;;;;14.15;3.95;;;11.00;99.90;;;;;;5005895;28;20182;-69
2024/03/22 08:04:29;;;;;;;14.07;4.35;;;11.00;99.90;;;;;;5003715;28;20832;-67
2024/03/22 08:06:55;;;;;;;7.55;3.58;;;11.10;99.90;;;;;;5003621;28;20042;-69
2024/03/22 08:09:20;;;;;;;11.27;3.90;;;11.10;99.90;;;;;;5004779;28;20061;-69
2024/03/22 08:11:47;;;;;;;10.32;3.97;;;11.10;99.90;;;;;;5005565;28;20057;-69
2024/03/22 08:14:13;;;;;;;11.43;3.78;;;11.10;99.90;;;;;;5004050;28;20049;-70
2024/03/22 08:16:39;;;;;;;10.38;4.97;;;11.20;99.90;;;;;;5005186;28;20058;-68
2024/03/22 08:19:05;;;;;;;11.70;5.35;;;11.20;99.90;;;;;;4997560;28;20054;-70
2024/03/22 08:21:31;;;;;;;8.80;3.30;;;11.20;99.90;;;;;;5021643;28;20100;-68
2024/03/22 08:23:57;;;;;;;8.55;3.63;;;11.30;99.90;;;;;;5006166;28;20104;-69
2024/03/22 08:26:23;;;;;;;10.38;3.80;;;11.20;99.90;;;;;;5003515;28;20129;-75
2024/03/22 08:28:48;;;;;;;10.48;3.30;;;11.20;99.90;;;;;;5006380;28;20058;-72
2024/03/22 08:31:15;;;;;;;8.43;3.42;;;11.20;99.90;;;;;;5004200;28;20049;-68
2024/03/22 08:33:41;;;;;;;5.70;3.28;;;11.20;99.90;;;;;;4998969;28;20425;-68
2024/03/22 08:36:06;;;;;;;11.82;3.65;;;11.30;99.90;;;;;;5018472;28;20049;-69
2024/03/22 08:38:33;;;;;;;7.18;3.80;;;11.30;99.90;;;;;;5005046;28;20144;-69
2024/03/22 08:40:59;;;;;;;7.43;2.67;;;11.30;99.90;;;;;;5007195;28;20050;-68
2024/03/22 08:43:25;;;;;;;7.45;3.88;;;11.30;99.90;;;;;;5001756;28;20053;-69
2024/03/22 08:45:52;;;;;;;10.98;3.58;;;11.30;99.90;;;;;;5017472;28;20038;-68
2024/03/22 08:48:17;;;;;;;7.10;2.35;;;11.20;99.90;;;;;;5021137;28;20532;-68
2024/03/22 08:50:44;;;;;;;9.18;3.20;;;11.10;99.90;;;;;;5005017;28;20159;-67
2024/03/22 08:53:10;;;;;;;6.07;2.80;;;11.10;99.90;;;;;;5009232;28;20045;-68
2024/03/22 08:55:36;;;;;;;7.78;3.22;;;11.10;99.90;;;;;;5011952;28;20056;-69
2024/03/22 08:58:03;;;;;;;9.55;3.47;;;11.20;99.90;;;;;;5007041;28;20050;-69
2024/03/22 09:00:29;;;;;;;5.65;2.95;;;11.30;99.90;;;;;;5004993;28;20498;-69
2024/03/22 09:02:55;;;;;;;4.80;2.67;;;11.40;99.90;;;;;;5003825;28;20085;-69
2024/03/22 09:05:21;;;;;;;10.32;2.88;;;11.40;99.90;;;;;;5007065;28;20050;-69
2024/03/22 09:07:48;;;;;;;7.72;2.80;;;11.40;99.90;;;;;;4997625;28;20441;-69
2024/03/22 09:10:14;;;;;;;6.75;2.35;;;11.40;99.90;;;;;;4994777;28;20039;-69
2024/03/22 09:12:40;;;;;;;8.18;2.85;;;11.40;99.90;;;;;;5005449;28;20213;-69
2024/03/22 09:15:07;;;;;;;5.10;2.95;;;11.40;99.90;;;;;;4987512;28;20039;-69
2024/03/22 09:17:33;;;;;;;12.23;3.20;;;11.30;99.90;;;;;;5004968;28;20052;-69
2024/03/22 09:19:59;;;;;;;10.93;2.70;;;11.40;99.90;;;;;;5004975;28;20508;-69
2024/03/22 09:22:24;;;;;;;6.68;2.42;;;11.50;99.90;;;;;;5006354;28;20126;-69
2024/03/22 09:24:50;;;;;;;4.18;2.33;;;11.60;99.90;;;;;;4990928;28;20301;-69
2024/03/22 09:27:16;;;;;;;7.90;3.13;;;11.60;99.90;;;;;;5004467;28;20217;-68
2024/03/22 09:29:43;;;;;;;5.70;2.50;;;11.60;99.90;;;;;;5007431;28;20045;-70
2024/03/22 09:32:09;;;;;;;5.55;2.30;;;11.70;99.90;;;;;;5004429;28;20061;-68
2024/03/22 09:34:35;;;;;;;7.63;3.88;;;11.70;99.90;;;;;;5005797;28;20132;-68
2024/03/22 09:37:01;;;;;;;7.00;3.40;;;11.80;99.90;;;;;;5004957;28;20049;-68
2024/03/22 09:39:28;;;;;;;7.85;2.47;;;11.80;99.90;;;;;;5004973;28;20590;-68
2024/03/22 09:41:53;;;;;;;5.30;2.45;;;11.80;99.90;;;;;;5020840;28;20056;-68
2024/03/22 09:44:19;;;;;;;6.05;2.63;;;11.90;99.90;;;;;;4972793;28;20461;-68
2024/03/22 09:46:47;;;;;;;6.90;2.55;;;11.90;99.90;;;;;;4989596;28;20054;-69
2024/03/22 09:49:13;;;;;;;5.18;2.40;;;12.00;99.90;;;;;;5007577;28;20089;-69
2024/03/22 09:51:42;;;;;;;7.07;2.45;;;12.00;99.90;;;;;;5003833;28;20457;-68
2024/03/22 09:54:11;;;;;;;9.57;2.20;;;11.90;99.90;;;;;;5023799;28;20362;-68
2024/03/22 09:56:40;;;;;;;11.77;2.47;;;11.90;99.90;;;;;;5014570;28;20053;-69
2024/03/22 09:59:06;;;;;;;4.55;2.10;;;12.00;99.90;;;;;;4991796;28;20500;-69
2024/03/22 10:01:34;;;;;;;5.00;2.55;;;11.90;99.90;;;;;;5012523;28;20049;-69
2024/03/22 10:04:00;;;;;;;7.22;2.53;;;12.10;99.90;;;;;;5008433;28;20053;-69
2024/03/22 10:06:25;;;;;;;4.88;2.75;;;12.00;99.90;;;;;;5012485;28;20120;-69
2024/03/22 10:08:51;;;;;;;9.50;3.13;;;12.00;99.90;;;;;;5008178;28;20425;-69
2024/03/22 10:11:18;;;;;;;6.45;2.75;;;11.90;99.90;;;;;;5007990;28;20077;-67
2024/03/22 10:13:44;;;;;;;6.78;2.28;;;12.00;99.90;;;;;;5008271;28;20050;-69
2024/03/22 10:16:10;;;;;;;4.00;2.15;;;12.00;99.90;;;;;;4992686;28;20424;-69
2024/03/22 10:18:36;;;;;;;6.82;2.50;;;12.10;99.90;;;;;;5006814;28;20054;-69
2024/03/22 10:21:05;;;;;;;9.25;3.88;;;12.20;99.90;;;;;;5009248;28;20128;-69
2024/03/22 10:23:31;;;;;;;3.50;2.22;;;12.20;99.90;;;;;;5004691;28;20053;-69
2024/03/22 10:26:00;;;;;;;5.78;2.35;;;12.20;99.90;;;;;;5007507;28;20057;-69
2024/03/22 10:28:26;;;;;;;4.40;1.95;;;12.20;99.90;;;;;;5004331;28;20062;-70
2024/03/22 10:30:52;;;;;;;8.85;2.45;;;12.30;99.90;;;;;;5006396;28;20415;-69
2024/03/22 10:33:23;;;;;;;11.50;3.17;;;12.20;99.90;;;;;;5009295;28;20112;-69
2024/03/22 10:35:52;;;;;;;11.05;2.80;;;12.10;99.90;;;;;;4991086;28;20050;-69
2024/03/22 10:38:21;;;;;;;15.10;2.50;;;12.10;99.90;;;;;;5022874;28;20065;-69
2024/03/22 10:40:48;;;;;;;10.27;2.50;;;12.10;99.90;;;;;;5007876;28;20100;-69
2024/03/22 10:43:15;;;;;;;6.68;2.53;;;12.10;99.90;;;;;;4993394;28;20070;-69
2024/03/22 10:45:41;;;;;;;4.28;2.38;;;12.10;99.90;;;;;;4992764;28;20104;-69
2024/03/22 10:48:09;;;;;;;8.20;2.78;;;12.00;99.90;;;;;;5006821;28;20108;-69
2024/03/22 10:50:37;;;;;;;3.70;2.50;;;12.00;99.90;;;;;;5008723;28;20078;-69
2024/03/22 10:53:04;;;;;;;4.82;2.78;;;12.00;99.90;;;;;;5008566;28;20057;-69
2024/03/22 10:55:34;;;;;;;7.50;2.67;;;12.10;99.90;;;;;;5006975;28;20101;-69
2024/03/22 10:58:00;;;;;;;5.90;2.47;;;12.20;99.90;;;;;;5007099;28;20062;-69
2024/03/22 11:00:33;;;;;;;10.05;2.20;;;12.20;99.90;;;;;;5012759;28;20058;-69
2024/03/22 11:03:04;;;;;;;6.22;2.38;;;12.20;99.90;;;;;;5009156;28;20049;-69
2024/03/22 11:05:30;;;;;;;6.97;2.47;;;12.30;99.90;;;;;;5022950;28;20100;-68
2024/03/22 11:08:05;;;;;;;3.35;2.40;;;12.30;99.90;;;;;;5008962;28;20072;-69
2024/03/22 11:10:34;;;;;;;4.60;2.83;;;12.20;99.90;;;;;;5012560;28;20046;-70
2024/03/22 11:13:03;;;;;;;15.00;5.45;;;12.20;99.90;;;;;;5008467;28;20050;-69
2024/03/22 11:15:30;;;;;;;4.32;2.85;;;12.10;99.90;;;;;;5006364;28;20546;-68
2024/03/22 11:17:56;;;;;;;8.52;3.00;;;12.00;99.90;;;;;;5007830;28;20049;-69
2024/03/22 11:20:22;;;;;;;8.80;3.10;;;12.00;99.90;;;;;;5009482;28;20050;-69
2024/03/22 11:22:48;;;;;;;5.47;2.72;;;11.90;99.90;;;;;;5013247;28;20049;-69
2024/03/22 11:25:14;;;;;;;8.63;2.83;;;11.90;99.90;;;;;;5014513;28;20108;-69
2024/03/22 11:27:39;;;;;;;8.10;3.00;;;11.80;99.90;;;;;;5007906;28;20054;-70
2024/03/22 11:30:07;;;;;;;10.18;3.10;;;11.60;99.90;;;;;;4991285;28;20456;-70
2024/03/22 11:32:42;;;;;;;10.40;2.47;;;11.50;99.90;;;;;;5022178;28;20060;-70
2024/03/22 11:35:11;;;;;;;11.00;5.43;;;11.60;99.90;;;;;;5009380;28;20489;-70
2024/03/22 11:37:39;;;;;;;7.60;2.72;;;11.60;99.90;;;;;;5007126;28;20049;-69
2024/03/22 11:40:06;;;;;;;8.00;2.40;;;11.60;99.90;;;;;;5009498;28;20116;-69
2024/03/22 11:42:35;;;;;;;9.80;3.63;;;11.50;99.90;;;;;;5006959;28;20497;-69
2024/03/22 11:45:00;;;;;;;8.18;2.88;;;11.60;99.90;;;;;;4992551;28;20060;-68
2024/03/22 11:47:26;;;;;;;9.40;3.30;;;11.60;99.90;;;;;;5007228;28;20058;-68
2024/03/22 11:49:52;;;;;;;13.63;2.80;;;11.60;99.90;;;;;;5000010;28;20046;-69
2024/03/22 11:52:18;;;;;;;8.85;2.47;;;11.50;99.90;;;;;;4989035;28;20054;-69
2024/03/22 11:54:52;;;;;;;13.07;3.15;;;11.50;99.90;;;;;;5009770;28;20244;-69
2024/03/22 11:57:20;;;;;;;7.75;3.00;;;11.40;99.90;;;;;;5007245;28;20060;-69
2024/03/22 11:59:46;;;;;;;9.95;2.88;;;11.30;99.90;;;;;;4991100;28;20133;-70
2024/03/22 12:02:12;;;;;;;8.85;3.10;;;11.50;99.90;;;;;;5007054;28;20068;-69
2024/03/22 12:04:46;;;;;;;10.23;3.65;;;11.40;99.90;;;;;;5007326;28;20492;-69
2024/03/22 12:07:16;;;;;;;18.00;3.08;;;11.30;99.90;;;;;;5005712;28;20054;-68
2024/03/22 12:09:42;;;;;;;16.55;2.67;;;11.20;99.90;;;;;;5007756;28;20076;-68
2024/03/22 12:12:08;;;;;;;14.25;2.50;;;11.10;99.90;;;;;;5008228;28;20500;-68
2024/03/22 12:14:34;;;;;;;9.82;2.33;;;11.00;99.90;;;;;;5009219;28;20136;-69
2024/03/22 12:17:02;;;;;;;16.30;3.08;;;11.00;99.90;;;;;;4992595;28;20054;-69
2024/03/22 12:19:28;;;;;;;20.25;3.25;;;11.00;99.90;;;;;;5006408;28;20085;-69
2024/03/22 12:21:54;;;;;;;9.15;2.10;;;11.00;99.90;;;;;;5022755;28;20535;-70
2024/03/22 12:24:20;;;;;;;19.52;3.10;;;11.00;99.90;;;;;;4990191;28;20050;-70
2024/03/22 12:26:46;;;;;;;16.60;3.33;;;10.80;99.90;;;;;;5010350;28;20050;-69
2024/03/22 12:29:13;;;;;;;14.07;2.88;;;10.70;99.90;;;;;;5011235;28;20390;-69
2024/03/22 12:31:38;;;;;;;15.00;3.47;;;10.60;99.90;;;;;;5009969;28;20650;-69
2024/03/22 12:34:04;;;;;;;17.77;4.65;;;10.50;99.90;;;;;;5007261;28;20054;-71
2024/03/22 12:36:30;;;;;;;18.08;3.75;;;10.60;99.90;;;;;;5009929;28;20049;-70